createdAt,value
2023-01-17T00:02:17.283Z,88.32
2023-01-17T00:05:04.036Z,88.15
2023-01-17T00:07:51.223Z,88.11
2023-01-17T00:13:22.643Z,88.28
2023-01-17T00:15:50.398Z,88.50
2023-01-17T00:18:17.993Z,88.26
2023-01-17T00:21:04.010Z,88.33
2023-01-17T00:23:59.287Z,88.10
2023-01-17T00:26:27.602Z,88.02
2023-01-17T00:28:55.237Z,88.41
2023-01-17T00:31:22.800Z,88.39
2023-01-17T00:33:50.412Z,88.21
2023-01-17T00:36:17.956Z,88.16
2023-01-17T00:38:45.457Z,88.67
2023-01-17T00:41:15.243Z,88.50
2023-01-17T00:44:42.359Z,88.26
2023-01-17T00:47:28.701Z,88.38
2023-01-17T00:50:14.838Z,88.53
2023-01-17T00:53:01.019Z,88.49
2023-01-17T00:55:47.112Z,88.33
2023-01-17T00:58:39.406Z,88.34
2023-01-17T01:01:26.229Z,88.94
2023-01-17T01:04:12.445Z,88.98
2023-01-17T01:06:58.558Z,89.08
2023-01-17T01:09:44.611Z,88.59
2023-01-17T01:12:30.525Z,88.67
2023-01-17T01:15:16.815Z,88.37
2023-01-17T01:18:02.973Z,88.31
2023-01-17T01:20:49.083Z,88.50
2023-01-17T01:23:35.129Z,88.46
2023-01-17T01:26:22.760Z,88.72
2023-01-17T01:29:08.794Z,88.86
2023-01-17T01:31:55.166Z,88.69
2023-01-17T01:34:23.168Z,88.66
2023-01-17T01:36:50.751Z,88.56
2023-01-17T01:39:18.393Z,88.69
2023-01-17T01:41:45.986Z,88.71
2023-01-17T01:44:49.051Z,88.75
2023-01-17T01:47:33.715Z,88.78
2023-01-17T01:50:05.810Z,88.81
2023-01-17T01:52:37.039Z,88.84
2023-01-17T01:55:09.703Z,88.90
2023-01-17T01:57:42.568Z,88.74
2023-01-17T02:00:21.679Z,88.68
2023-01-17T02:02:51.758Z,89.02
2023-01-17T02:05:22.711Z,88.87
2023-01-17T02:08:04.966Z,89.07
2023-01-17T02:10:37.804Z,88.97
2023-01-17T02:13:06.881Z,88.96
2023-01-17T02:15:53.080Z,88.93
2023-01-17T02:18:45.606Z,88.88
2023-01-17T02:21:27.253Z,88.83
2023-01-17T02:24:30.139Z,88.80
2023-01-17T02:27:08.004Z,88.87
2023-01-17T02:29:54.334Z,89.08
2023-01-17T02:33:16.450Z,89.10
2023-01-17T02:35:49.504Z,89.26
2023-01-17T02:38:45.212Z,89.44
2023-01-17T02:41:35.739Z,89.42
2023-01-17T02:44:04.350Z,89.43
2023-01-17T02:46:31.994Z,89.13
2023-01-17T02:49:00.675Z,89.39
2023-01-17T02:51:39.317Z,89.16
2023-01-17T02:54:35.172Z,89.22
2023-01-17T02:57:28.259Z,89.28
2023-01-17T03:00:06.851Z,89.57
2023-01-17T03:02:58.246Z,89.55
2023-01-17T03:05:31.637Z,89.65
2023-01-17T03:08:00.523Z,89.76
2023-01-17T03:10:30.294Z,89.61
2023-01-17T03:13:01.148Z,89.40
2023-01-17T03:15:28.810Z,89.48
2023-01-17T03:18:00.953Z,89.91
2023-01-17T03:20:28.556Z,89.32
2023-01-17T03:27:08.761Z,89.40
2023-01-17T03:29:36.426Z,89.41
2023-01-17T03:32:04.124Z,89.25
2023-01-17T03:34:31.796Z,89.28
2023-01-17T03:36:59.389Z,89.42
2023-01-17T03:39:26.969Z,89.59
2023-01-17T03:41:54.586Z,89.74
2023-01-17T03:44:22.238Z,89.84
2023-01-17T03:46:49.808Z,89.85
2023-01-17T03:49:17.424Z,89.65
2023-01-17T03:51:45.056Z,89.63
2023-01-17T03:54:12.633Z,89.81
2023-01-17T03:56:40.617Z,89.66
2023-01-17T03:59:08.342Z,89.66
2023-01-17T04:01:35.916Z,89.55
2023-01-17T04:04:03.666Z,89.57
2023-01-17T04:06:31.267Z,89.40
2023-01-17T04:08:58.883Z,89.53
2023-01-17T04:11:26.509Z,89.64
2023-01-17T04:13:55.306Z,89.86
2023-01-17T04:16:28.199Z,89.42
2023-01-17T04:18:56.501Z,89.61
2023-01-17T04:21:24.112Z,89.96
2023-01-17T04:23:52.009Z,89.92
2023-01-17T04:26:19.669Z,89.98
2023-01-17T04:28:47.436Z,89.90
2023-01-17T04:31:17.542Z,89.99
2023-01-17T04:33:45.284Z,89.92
2023-01-17T04:36:12.922Z,89.86
2023-01-17T04:38:40.647Z,89.94
2023-01-17T04:41:08.221Z,89.89
2023-01-17T04:43:36.133Z,89.84
2023-01-17T04:46:05.934Z,89.63
2023-01-17T04:48:33.546Z,89.67
2023-01-17T04:51:02.799Z,89.64
2023-01-17T04:53:30.498Z,89.85
2023-01-17T04:55:58.453Z,89.71
2023-01-17T04:58:26.615Z,89.96
2023-01-17T05:00:55.438Z,89.81
2023-01-17T05:03:23.568Z,90.13
2023-01-17T05:05:51.201Z,89.94
2023-01-17T05:08:18.895Z,90.10
2023-01-17T05:10:47.303Z,90.17
2023-01-17T05:13:15.161Z,89.84
2023-01-17T05:15:42.761Z,89.92
2023-01-17T05:18:15.237Z,90.27
2023-01-17T05:20:43.209Z,90.04
2023-01-17T05:23:11.417Z,89.75
2023-01-17T05:25:44.482Z,89.87
2023-01-17T05:28:13.140Z,89.89
2023-01-17T05:30:40.806Z,89.86
2023-01-17T05:33:10.294Z,90.09
2023-01-17T05:35:38.459Z,90.16
2023-01-17T05:38:06.156Z,89.91
2023-01-17T05:40:34.235Z,89.85
2023-01-17T05:43:03.416Z,89.86
2023-01-17T05:45:33.392Z,90.00
2023-01-17T05:48:01.837Z,89.64
2023-01-17T05:50:32.719Z,89.97
2023-01-17T05:53:03.505Z,90.11
2023-01-17T05:55:31.801Z,89.92
2023-01-17T05:57:59.881Z,89.92
2023-01-17T06:00:27.880Z,90.15
2023-01-17T06:02:57.261Z,90.15
2023-01-17T06:05:25.708Z,89.92
2023-01-17T06:07:54.142Z,90.04
2023-01-17T06:10:22.315Z,90.27
2023-01-17T06:12:50.812Z,90.07
2023-01-17T06:15:18.900Z,90.20
2023-01-17T06:17:46.635Z,90.62
2023-01-17T06:20:14.297Z,90.33
2023-01-17T06:22:41.891Z,90.14
2023-01-17T06:25:10.271Z,90.23
2023-01-17T06:27:37.909Z,90.26
2023-01-17T06:30:06.227Z,90.87
2023-01-17T06:32:33.882Z,89.88
2023-01-17T06:35:01.420Z,90.30
2023-01-17T06:37:28.961Z,90.20
2023-01-17T06:39:56.660Z,90.10
2023-01-17T06:42:24.228Z,90.14
2023-01-17T06:44:51.786Z,90.22
2023-01-17T06:47:19.311Z,90.35
2023-01-17T06:49:47.065Z,90.18
2023-01-17T06:52:16.096Z,90.45
2023-01-17T06:54:43.680Z,90.07
2023-01-17T06:57:11.236Z,90.15
2023-01-17T06:59:38.874Z,90.35
2023-01-17T07:02:06.415Z,90.31
2023-01-17T07:04:34.820Z,89.79
2023-01-17T07:07:02.636Z,90.11
2023-01-17T07:09:30.271Z,90.15
2023-01-17T07:12:02.013Z,90.10
2023-01-17T07:14:29.699Z,90.61
2023-01-17T07:16:57.655Z,90.40
2023-01-17T07:19:26.090Z,90.46
2023-01-17T07:21:54.615Z,90.02
2023-01-17T07:24:22.302Z,90.42
2023-01-17T07:26:51.192Z,90.59
2023-01-17T07:29:19.139Z,90.76
2023-01-17T07:31:48.961Z,90.79
2023-01-17T07:34:16.663Z,90.53
2023-01-17T07:36:44.355Z,90.52
2023-01-17T07:39:12.088Z,90.58
2023-01-17T07:41:41.514Z,90.57
2023-01-17T07:44:10.946Z,90.46
2023-01-17T07:46:38.662Z,90.29
2023-01-17T07:49:06.630Z,90.34
2023-01-17T07:51:34.425Z,90.69
2023-01-17T07:54:02.080Z,90.58
2023-01-17T07:56:29.720Z,90.49
2023-01-17T07:58:57.317Z,90.70
2023-01-17T08:01:24.936Z,90.87
2023-01-17T08:03:54.957Z,91.30
2023-01-17T08:06:25.065Z,91.14
2023-01-17T08:08:59.137Z,91.34
2023-01-17T08:11:27.144Z,91.60
2023-01-17T08:13:59.532Z,91.70
2023-01-17T08:16:28.868Z,91.68
2023-01-17T08:18:57.290Z,91.55
2023-01-17T08:21:25.085Z,91.20
2023-01-17T08:23:53.009Z,91.41
2023-01-17T08:26:22.435Z,91.70
2023-01-17T08:28:56.249Z,91.69
2023-01-17T08:31:24.716Z,92.00
2023-01-17T08:33:52.469Z,92.02
2023-01-17T08:36:20.237Z,92.24
2023-01-17T08:38:51.042Z,91.95
2023-01-17T08:41:19.930Z,92.25
2023-01-17T08:43:51.912Z,92.00
2023-01-17T08:46:20.045Z,91.94
2023-01-17T08:48:47.603Z,91.78
2023-01-17T08:51:15.193Z,91.72
2023-01-17T08:53:42.903Z,91.62
2023-01-17T08:56:10.619Z,91.58
2023-01-17T08:58:38.148Z,91.48
2023-01-17T09:01:06.636Z,91.37
2023-01-17T09:03:34.907Z,91.51
2023-01-17T09:06:12.989Z,91.44
2023-01-17T09:08:41.280Z,91.25
2023-01-17T09:11:11.719Z,91.66
2023-01-17T09:13:39.844Z,91.44
2023-01-17T09:16:08.175Z,91.60
2023-01-17T09:18:36.592Z,91.45
2023-01-17T09:21:16.695Z,91.53
2023-01-17T09:23:44.623Z,91.42
2023-01-17T09:26:32.600Z,91.81
2023-01-17T09:29:00.540Z,91.86
2023-01-17T09:31:28.337Z,91.86
2023-01-17T09:33:56.972Z,92.31
2023-01-17T09:36:29.280Z,91.58
2023-01-17T09:39:01.227Z,91.84
2023-01-17T09:41:44.263Z,91.79
2023-01-17T09:44:34.454Z,91.60
2023-01-17T09:47:20.033Z,91.47
2023-01-17T09:49:49.183Z,91.86
2023-01-17T09:52:21.133Z,91.72
2023-01-17T09:54:52.868Z,91.74
2023-01-17T09:57:46.033Z,91.84
2023-01-17T10:00:26.142Z,91.69
2023-01-17T10:03:00.874Z,91.70
2023-01-17T10:05:28.517Z,92.19
2023-01-17T10:08:13.050Z,91.90
2023-01-17T10:10:43.307Z,92.06
2023-01-17T10:13:26.392Z,92.24
2023-01-17T10:16:24.313Z,92.29
2023-01-17T10:19:29.441Z,92.11
2023-01-17T10:22:32.107Z,92.14
2023-01-17T10:25:21.501Z,92.37
2023-01-17T10:28:06.705Z,92.29
2023-01-17T10:30:38.382Z,92.56
2023-01-17T10:33:41.745Z,92.06
2023-01-17T10:36:20.767Z,92.18
2023-01-17T10:38:55.153Z,92.66
2023-01-17T10:41:27.762Z,92.34
2023-01-17T10:44:08.260Z,92.78
2023-01-17T10:46:43.524Z,92.52
2023-01-17T10:49:20.311Z,92.66
2023-01-17T10:52:22.490Z,92.17
2023-01-17T10:55:09.667Z,90.39
2023-01-17T10:57:49.073Z,86.16
2023-01-17T11:00:40.210Z,84.04
2023-01-17T11:03:11.186Z,82.82
2023-01-17T11:05:41.259Z,81.81
2023-01-17T11:08:14.657Z,80.37
2023-01-17T11:10:43.709Z,80.34
2023-01-17T11:13:31.021Z,78.33
2023-01-17T11:16:06.529Z,77.10
2023-01-17T11:18:39.872Z,76.17
2023-01-17T11:21:17.560Z,75.69
2023-01-17T11:23:48.804Z,75.52
2023-01-17T11:26:48.094Z,74.95
2023-01-17T11:29:28.487Z,74.51
2023-01-17T11:31:56.469Z,74.32
2023-01-17T11:34:27.222Z,73.93
2023-01-17T11:37:20.688Z,73.15
2023-01-17T11:39:48.640Z,73.60
2023-01-17T11:42:32.700Z,72.93
2023-01-17T11:45:27.197Z,72.70
2023-01-17T11:48:12.786Z,72.09
2023-01-17T11:50:44.907Z,72.25
2023-01-17T11:53:12.444Z,71.03
2023-01-17T11:55:40.803Z,70.42
2023-01-17T11:58:15.222Z,69.48
2023-01-17T12:00:46.810Z,69.43
2023-01-17T12:03:41.451Z,69.02
2023-01-17T12:06:34.429Z,69.01
2023-01-17T12:09:34.124Z,67.41
2023-01-17T12:12:44.748Z,65.76
2023-01-17T12:23:50.940Z,61.47
2023-01-17T12:26:52.489Z,59.78
2023-01-17T12:33:47.193Z,59.16
2023-01-17T12:45:38.174Z,58.06
2023-01-17T12:48:29.979Z,57.51
2023-01-17T12:51:07.048Z,57.06
2023-01-17T12:53:34.590Z,57.03
2023-01-17T12:57:16.379Z,56.80
2023-01-17T13:00:19.660Z,57.42
2023-01-17T13:03:41.562Z,58.03
2023-01-17T13:06:22.534Z,60.11
2023-01-17T13:08:56.910Z,60.56
2023-01-17T13:11:41.142Z,60.95
2023-01-17T13:14:10.450Z,61.63
2023-01-17T13:17:09.309Z,62.27
2023-01-17T13:19:36.845Z,63.01
2023-01-17T13:22:17.512Z,63.10
2023-01-17T13:24:55.769Z,63.18
2023-01-17T13:27:35.289Z,62.37
2023-01-17T13:30:15.462Z,61.95
2023-01-17T13:32:58.024Z,60.72
2023-01-17T13:35:43.060Z,60.38
2023-01-17T13:38:29.120Z,60.90
2023-01-17T13:41:12.340Z,61.02
2023-01-17T13:44:05.234Z,60.59
2023-01-17T13:47:12.610Z,60.39
2023-01-17T13:49:46.236Z,60.03
2023-01-17T13:52:19.833Z,60.77
2023-01-17T13:54:50.439Z,60.93
2023-01-17T13:57:29.547Z,60.45
2023-01-17T13:59:59.834Z,59.97
2023-01-17T14:06:46.883Z,60.91
2023-01-17T14:09:42.710Z,60.86
2023-01-17T14:12:16.332Z,60.33
2023-01-17T14:14:49.790Z,60.61
2023-01-17T14:17:25.598Z,60.82
2023-01-17T14:20:06.131Z,60.44
2023-01-17T14:22:37.701Z,60.95
2023-01-17T14:25:23.757Z,60.93
2023-01-17T14:28:04.394Z,60.26
2023-01-17T14:30:31.973Z,60.74
2023-01-17T14:33:00.847Z,61.26
2023-01-17T14:35:48.928Z,60.94
2023-01-17T14:38:21.840Z,61.96
2023-01-17T14:40:57.504Z,62.67
2023-01-17T14:43:28.193Z,62.31
2023-01-17T14:45:58.802Z,63.03
2023-01-17T14:48:26.666Z,63.77
2023-01-17T14:50:57.511Z,64.74
2023-01-17T14:53:28.324Z,65.58
2023-01-17T14:56:12.832Z,65.47
2023-01-17T14:58:41.514Z,66.34
2023-01-17T15:01:14.757Z,67.44
2023-01-17T15:03:51.427Z,68.08
2023-01-17T15:06:27.815Z,69.23
2023-01-17T15:08:55.569Z,69.10
2023-01-17T15:11:26.877Z,70.03
2023-01-17T15:13:57.844Z,70.06
2023-01-17T15:16:28.575Z,70.87
2023-01-17T15:22:45.304Z,72.08
2023-01-17T15:25:15.413Z,72.43
2023-01-17T15:31:58.209Z,73.48
2023-01-17T15:37:40.037Z,74.52
2023-01-17T15:40:18.871Z,74.77
2023-01-17T15:42:52.071Z,75.18
2023-01-17T15:45:25.402Z,75.29
2023-01-17T15:47:53.016Z,75.74
2023-01-17T15:50:20.768Z,76.01
2023-01-17T15:52:50.693Z,76.85
2023-01-17T15:55:37.107Z,77.16
2023-01-17T15:58:22.954Z,77.46
2023-01-17T16:00:50.931Z,77.88
2023-01-17T16:03:29.936Z,78.36
2023-01-17T16:06:02.708Z,78.92
2023-01-17T16:08:52.390Z,79.36
2023-01-17T16:11:21.825Z,79.83
2023-01-17T16:31:23.959Z,81.28
2023-01-17T16:33:52.100Z,81.41
2023-01-17T16:36:31.938Z,81.95
2023-01-17T16:38:59.646Z,81.89
2023-01-17T16:41:27.320Z,82.35
2023-01-17T16:44:03.539Z,82.08
2023-01-17T16:46:31.366Z,82.51
2023-01-17T16:49:00.094Z,82.16
2023-01-17T16:51:27.788Z,82.65
2023-01-17T16:53:55.629Z,82.90
2023-01-17T16:56:23.280Z,83.04
2023-01-17T16:58:53.175Z,83.25
2023-01-17T17:01:22.790Z,83.14
2023-01-17T17:03:50.699Z,83.36
2023-01-17T17:06:18.418Z,83.54
2023-01-17T17:08:46.193Z,83.40
2023-01-17T17:11:17.530Z,83.37
2023-01-17T17:13:47.267Z,83.38
2023-01-17T17:16:18.868Z,83.39
2023-01-17T17:18:54.863Z,83.39
2023-01-17T17:21:22.598Z,83.34
2023-01-17T17:23:58.684Z,83.24
2023-01-17T17:26:31.499Z,83.49
2023-01-17T17:28:59.239Z,83.42
2023-01-17T17:31:27.310Z,83.42
2023-01-17T17:33:59.499Z,83.09
2023-01-17T17:36:27.323Z,83.37
2023-01-17T17:38:56.689Z,83.54
2023-01-17T17:41:44.783Z,83.62
2023-01-17T17:44:12.653Z,83.70
2023-01-17T17:46:42.261Z,83.98
2023-01-17T17:49:09.966Z,83.98
2023-01-17T17:51:39.827Z,84.15
2023-01-17T17:54:10.382Z,84.28
2023-01-17T17:56:39.068Z,84.54
2023-01-17T18:02:11.903Z,84.38
2023-01-17T18:04:39.662Z,84.79
2023-01-17T18:07:07.253Z,84.47
2023-01-17T18:10:49.388Z,84.27
2023-01-17T18:13:42.817Z,84.26
2023-01-17T18:16:37.177Z,85.01
2023-01-17T18:19:06.391Z,84.60
2023-01-17T18:21:36.975Z,84.77
2023-01-17T18:24:13.750Z,85.17
2023-01-17T18:26:44.469Z,84.97
2023-01-17T18:29:15.855Z,85.17
2023-01-17T18:31:48.040Z,85.24
2023-01-17T18:34:19.360Z,85.03
2023-01-17T18:36:47.193Z,85.36
2023-01-17T18:39:21.016Z,85.31
2023-01-17T18:41:49.735Z,85.53
2023-01-17T18:44:18.396Z,85.56
2023-01-17T18:46:48.071Z,85.41
2023-01-17T18:49:18.418Z,85.63
2023-01-17T18:51:50.444Z,85.46
2023-01-17T18:54:20.019Z,85.32
2023-01-17T18:56:48.117Z,84.86
2023-01-17T18:59:18.615Z,85.29
2023-01-17T19:01:46.599Z,85.06
2023-01-17T19:04:16.012Z,85.16
2023-01-17T19:06:46.837Z,84.92
2023-01-17T19:09:15.622Z,84.96
2023-01-17T19:11:45.149Z,85.52
2023-01-17T19:14:13.144Z,85.13
2023-01-17T19:16:42.065Z,85.41
2023-01-17T19:19:12.802Z,85.51
2023-01-17T19:21:40.537Z,85.61
2023-01-17T19:24:10.063Z,85.33
2023-01-17T19:26:37.820Z,85.87
2023-01-17T19:29:06.819Z,85.84
2023-01-17T19:31:43.363Z,86.11
2023-01-17T19:34:14.046Z,85.85
2023-01-17T19:36:41.971Z,86.25
2023-01-17T19:39:09.947Z,86.19
2023-01-17T19:41:42.314Z,86.22
2023-01-17T19:44:12.032Z,86.20
2023-01-17T19:46:39.878Z,86.92
2023-01-17T19:49:09.028Z,86.61
2023-01-17T19:51:36.828Z,86.39
2023-01-17T19:54:06.527Z,86.90
2023-01-17T19:56:34.547Z,86.82
2023-01-17T19:59:02.476Z,86.81
2023-01-17T20:01:32.999Z,86.68
2023-01-17T20:04:02.078Z,86.47
2023-01-17T20:06:33.743Z,86.66
2023-01-17T20:09:01.573Z,86.80
2023-01-17T20:11:29.220Z,86.63
2023-01-17T20:13:58.566Z,87.00
2023-01-17T20:16:28.876Z,86.29
2023-01-17T20:18:58.465Z,86.83
2023-01-17T20:21:28.240Z,86.52
2023-01-17T20:23:57.833Z,86.46
2023-01-17T20:26:31.313Z,86.30
2023-01-17T20:28:58.963Z,86.50
2023-01-17T20:31:27.498Z,86.81
2023-01-17T20:33:56.324Z,86.76
2023-01-17T20:36:26.754Z,86.63
2023-01-17T20:38:54.723Z,86.81
2023-01-17T20:41:43.953Z,86.67
2023-01-17T20:44:16.192Z,86.66
2023-01-17T20:46:44.524Z,86.55
2023-01-17T20:49:18.813Z,86.57
2023-01-17T20:51:47.766Z,86.91
2023-01-17T20:54:18.245Z,86.89
2023-01-17T20:56:47.621Z,87.45
2023-01-17T20:59:18.332Z,87.18
2023-01-17T21:01:46.420Z,87.52
2023-01-17T21:04:15.109Z,87.13
2023-01-17T21:06:44.095Z,87.40
2023-01-17T21:09:15.147Z,87.58
2023-01-17T21:11:43.109Z,87.30
2023-01-17T21:14:10.770Z,87.68
2023-01-17T21:16:38.491Z,87.93
2023-01-17T21:19:06.336Z,87.79
2023-01-17T21:21:34.056Z,87.86
2023-01-17T21:24:01.609Z,87.63
2023-01-17T21:26:29.284Z,87.84
2023-01-17T21:29:00.165Z,87.48
2023-01-17T21:31:34.846Z,87.43
2023-01-17T21:34:05.707Z,87.49
2023-01-17T21:36:35.607Z,87.51
2023-01-17T21:39:06.940Z,87.72
2023-01-17T21:41:41.109Z,87.49
2023-01-17T21:44:15.112Z,87.80
2023-01-17T21:46:43.595Z,87.76
2023-01-17T21:49:15.463Z,88.04
2023-01-17T21:51:52.912Z,87.77
2023-01-17T21:54:44.434Z,87.70
2023-01-17T21:57:36.344Z,87.76
2023-01-17T22:00:09.270Z,87.89
2023-01-17T22:02:41.227Z,87.57
2023-01-17T22:05:10.502Z,87.70
2023-01-17T22:07:39.185Z,87.58
2023-01-17T22:10:07.817Z,87.50
2023-01-17T22:12:35.390Z,87.71
2023-01-17T22:15:04.217Z,87.67
2023-01-17T22:17:31.949Z,87.71
2023-01-17T22:19:59.539Z,87.48
2023-01-17T22:22:27.083Z,87.44
2023-01-17T22:24:54.615Z,87.62
2023-01-17T22:27:22.350Z,87.57
2023-01-17T22:29:49.925Z,87.85
2023-01-17T22:32:17.650Z,87.51
2023-01-17T22:34:45.204Z,87.82
2023-01-17T22:37:12.823Z,88.05
2023-01-17T22:39:40.416Z,87.53
2023-01-17T22:42:08.546Z,87.73
2023-01-17T22:44:36.147Z,88.17
2023-01-17T22:47:03.888Z,88.38
2023-01-17T22:49:31.482Z,87.80
2023-01-17T22:51:59.109Z,88.30
2023-01-17T22:54:27.063Z,88.08
2023-01-17T22:56:54.644Z,87.66
2023-01-17T22:59:22.271Z,88.10
2023-01-17T23:01:50.076Z,88.03
2023-01-17T23:04:17.667Z,88.23
2023-01-17T23:06:45.284Z,87.88
2023-01-17T23:09:15.441Z,88.28
2023-01-17T23:11:46.326Z,88.28
2023-01-17T23:14:30.425Z,88.10
2023-01-17T23:17:22.230Z,88.14
2023-01-17T23:19:52.515Z,87.49
2023-01-17T23:22:23.196Z,87.72
2023-01-17T23:24:56.313Z,87.45
2023-01-17T23:28:00.844Z,87.27
2023-01-17T23:30:34.540Z,87.20
2023-01-17T23:33:07.841Z,87.44
2023-01-17T23:35:42.129Z,87.12
2023-01-17T23:38:28.630Z,87.15
2023-01-17T23:41:19.783Z,87.44
2023-01-17T23:43:55.411Z,87.44
2023-01-17T23:46:25.490Z,87.51
2023-01-17T23:48:53.181Z,87.47
2023-01-17T23:51:20.766Z,87.12
2023-01-17T23:53:48.432Z,87.23
2023-01-17T23:56:23.149Z,87.33
2023-01-17T23:58:50.945Z,87.57
